sensor_id;sensor_type;location;lat;lon;timestamp;P1;durP1;ratioP1;P2;durP2;ratioP2
19643;SDS011;9970;-36.854;174.870;2022-08-07T00:00:01;1.60;;;1.60;;
19643;SDS011;9970;-36.854;174.870;2022-08-07T00:02:34;1.40;;;1.40;;
19643;SDS011;9970;-36.854;174.870;2022-08-07T00:05:08;1.50;;;1.50;;
19643;SDS011;9970;-36.854;174.870;2022-08-07T00:07:42;1.50;;;1.50;;
19643;SDS011;9970;-36.854;174.870;2022-08-07T00:10:16;1.50;;;1.50;;
19643;SDS011;9970;-36.854;174.870;2022-08-07T00:12:50;1.50;;;1.50;;
19643;SDS011;9970;-36.854;174.870;2022-08-07T00:15:24;1.50;;;1.50;;
19643;SDS011;9970;-36.854;174.870;2022-08-07T00:17:58;1.50;;;1.50;;
19643;SDS011;9970;-36.854;174.870;2022-08-07T00:20:32;1.57;;;1.57;;
19643;SDS011;9970;-36.854;174.870;2022-08-07T00:23:05;1.50;;;1.50;;
19643;SDS011;9970;-36.854;174.870;2022-08-07T00:25:39;1.50;;;1.50;;
19643;SDS011;9970;-36.854;174.870;2022-08-07T00:28:13;1.50;;;1.50;;
19643;SDS011;9970;-36.854;174.870;2022-08-07T00:30:47;1.60;;;1.60;;
19643;SDS011;9970;-36.854;174.870;2022-08-07T00:33:21;1.50;;;1.50;;
19643;SDS011;9970;-36.854;174.870;2022-08-07T00:35:56;1.70;;;1.70;;
19643;SDS011;9970;-36.854;174.870;2022-08-07T00:38:34;1.60;;;1.60;;
19643;SDS011;9970;-36.854;174.870;2022-08-07T00:41:09;1.77;;;1.77;;
19643;SDS011;9970;-36.854;174.870;2022-08-07T00:43:42;1.70;;;1.70;;
19643;SDS011;9970;-36.854;174.870;2022-08-07T00:46:16;1.60;;;1.60;;
19643;SDS011;9970;-36.854;174.870;2022-08-07T00:48:50;1.60;;;1.60;;
19643;SDS011;9970;-36.854;174.870;2022-08-07T00:51:25;1.53;;;1.53;;
19643;SDS011;9970;-36.854;174.870;2022-08-07T00:54:04;1.50;;;1.50;;
19643;SDS011;9970;-36.854;174.870;2022-08-07T00:56:40;1.50;;;1.50;;
19643;SDS011;9970;-36.854;174.870;2022-08-07T00:59:14;1.57;;;1.57;;
19643;SDS011;9970;-36.854;174.870;2022-08-07T01:01:52;1.50;;;1.50;;
19643;SDS011;9970;-36.854;174.870;2022-08-07T01:04:30;1.50;;;1.50;;
19643;SDS011;9970;-36.854;174.870;2022-08-07T01:07:04;1.60;;;1.60;;
19643;SDS011;9970;-36.854;174.870;2022-08-07T01:09:37;1.50;;;1.50;;
19643;SDS011;9970;-36.854;174.870;2022-08-07T01:12:15;1.70;;;1.70;;
19643;SDS011;9970;-36.854;174.870;2022-08-07T01:14:50;1.60;;;1.60;;
19643;SDS011;9970;-36.854;174.870;2022-08-07T01:17:26;1.60;;;1.60;;
19643;SDS011;9970;-36.854;174.870;2022-08-07T01:20:05;1.50;;;1.50;;
19643;SDS011;9970;-36.854;174.870;2022-08-07T01:22:42;1.60;;;1.60;;
19643;SDS011;9970;-36.854;174.870;2022-08-07T01:25:16;1.60;;;1.60;;
19643;SDS011;9970;-36.854;174.870;2022-08-07T01:27:51;1.50;;;1.50;;
19643;SDS011;9970;-36.854;174.870;2022-08-07T01:30:26;1.60;;;1.60;;
19643;SDS011;9970;-36.854;174.870;2022-08-07T01:32:59;1.50;;;1.50;;
19643;SDS011;9970;-36.854;174.870;2022-08-07T01:35:32;1.50;;;1.50;;
19643;SDS011;9970;-36.854;174.870;2022-08-07T01:38:09;1.40;;;1.40;;
19643;SDS011;9970;-36.854;174.870;2022-08-07T01:40:44;1.50;;;1.50;;
19643;SDS011;9970;-36.854;174.870;2022-08-07T01:43:19;1.40;;;1.40;;
19643;SDS011;9970;-36.854;174.870;2022-08-07T01:45:52;1.50;;;1.50;;
19643;SDS011;9970;-36.854;174.870;2022-08-07T01:48:34;1.40;;;1.40;;
19643;SDS011;9970;-36.854;174.870;2022-08-07T01:51:10;1.40;;;1.40;;
19643;SDS011;9970;-36.854;174.870;2022-08-07T01:53:57;1.40;;;1.40;;
19643;SDS011;9970;-36.854;174.870;2022-08-07T01:56:46;1.40;;;1.40;;
19643;SDS011;9970;-36.854;174.870;2022-08-07T01:59:45;1.30;;;1.30;;
19643;SDS011;9970;-36.854;174.870;2022-08-07T02:02:16;1.30;;;1.30;;
19643;SDS011;9970;-36.854;174.870;2022-08-07T02:04:55;1.40;;;1.40;;
19643;SDS011;9970;-36.854;174.870;2022-08-07T02:07:32;1.40;;;1.40;;
19643;SDS011;9970;-36.854;174.870;2022-08-07T02:10:07;1.40;;;1.40;;
19643;SDS011;9970;-36.854;174.870;2022-08-07T02:12:41;1.20;;;1.20;;
19643;SDS011;9970;-36.854;174.870;2022-08-07T02:15:21;1.20;;;1.20;;
19643;SDS011;9970;-36.854;174.870;2022-08-07T02:17:55;1.20;;;1.20;;
19643;SDS011;9970;-36.854;174.870;2022-08-07T02:20:32;1.10;;;1.10;;
19643;SDS011;9970;-36.854;174.870;2022-08-07T02:23:06;1.10;;;1.10;;
19643;SDS011;9970;-36.854;174.870;2022-08-07T02:25:41;1.10;;;1.10;;
19643;SDS011;9970;-36.854;174.870;2022-08-07T02:28:17;1.20;;;1.20;;
19643;SDS011;9970;-36.854;174.870;2022-08-07T02:30:52;1.10;;;1.10;;
19643;SDS011;9970;-36.854;174.870;2022-08-07T02:33:36;1.20;;;1.20;;
19643;SDS011;9970;-36.854;174.870;2022-08-07T02:36:11;1.20;;;1.20;;
19643;SDS011;9970;-36.854;174.870;2022-08-07T02:38:47;1.10;;;1.10;;
19643;SDS011;9970;-36.854;174.870;2022-08-07T02:41:23;1.00;;;1.00;;
19643;SDS011;9970;-36.854;174.870;2022-08-07T02:43:59;1.07;;;1.07;;
19643;SDS011;9970;-36.854;174.870;2022-08-07T02:46:34;1.10;;;1.10;;
19643;SDS011;9970;-36.854;174.870;2022-08-07T02:49:09;1.10;;;1.10;;
19643;SDS011;9970;-36.854;174.870;2022-08-07T02:51:45;1.00;;;1.00;;
19643;SDS011;9970;-36.854;174.870;2022-08-07T02:54:22;1.07;;;1.07;;
19643;SDS011;9970;-36.854;174.870;2022-08-07T02:56:58;1.00;;;1.00;;
19643;SDS011;9970;-36.854;174.870;2022-08-07T02:59:33;1.00;;;1.00;;
19643;SDS011;9970;-36.854;174.870;2022-08-07T03:02:17;0.90;;;0.90;;
19643;SDS011;9970;-36.854;174.870;2022-08-07T03:05:02;1.10;;;1.10;;
19643;SDS011;9970;-36.854;174.870;2022-08-07T03:07:38;1.00;;;1.00;;
19643;SDS011;9970;-36.854;174.870;2022-08-07T03:10:13;0.90;;;0.90;;
19643;SDS011;9970;-36.854;174.870;2022-08-07T03:12:52;0.90;;;0.90;;
19643;SDS011;9970;-36.854;174.870;2022-08-07T03:15:38;0.83;;;0.83;;
19643;SDS011;9970;-36.854;174.870;2022-08-07T03:18:23;0.90;;;0.90;;
19643;SDS011;9970;-36.854;174.870;2022-08-07T03:21:13;0.80;;;0.80;;
19643;SDS011;9970;-36.854;174.870;2022-08-07T03:24:12;0.80;;;0.80;;
19643;SDS011;9970;-36.854;174.870;2022-08-07T03:26:57;0.80;;;0.80;;
19643;SDS011;9970;-36.854;174.870;2022-08-07T03:29:36;0.80;;;0.80;;
19643;SDS011;9970;-36.854;174.870;2022-08-07T03:32:23;0.90;;;0.90;;
19643;SDS011;9970;-36.854;174.870;2022-08-07T03:35:11;0.80;;;0.80;;
19643;SDS011;9970;-36.854;174.870;2022-08-07T03:40:49;0.90;;;0.90;;
19643;SDS011;9970;-36.854;174.870;2022-08-07T03:43:27;0.80;;;0.80;;
19643;SDS011;9970;-36.854;174.870;2022-08-07T03:46:04;0.90;;;0.90;;
19643;SDS011;9970;-36.854;174.870;2022-08-07T03:48:41;0.80;;;0.80;;
19643;SDS011;9970;-36.854;174.870;2022-08-07T03:51:16;0.80;;;0.80;;
19643;SDS011;9970;-36.854;174.870;2022-08-07T03:53:54;0.80;;;0.80;;
19643;SDS011;9970;-36.854;174.870;2022-08-07T03:56:36;0.80;;;0.80;;
19643;SDS011;9970;-36.854;174.870;2022-08-07T03:59:10;0.80;;;0.80;;
19643;SDS011;9970;-36.854;174.870;2022-08-07T04:01:54;0.80;;;0.80;;
19643;SDS011;9970;-36.854;174.870;2022-08-07T04:04:45;0.80;;;0.80;;
19643;SDS011;9970;-36.854;174.870;2022-08-07T04:13:46;0.80;;;0.80;;
19643;SDS011;9970;-36.854;174.870;2022-08-07T04:16:33;0.80;;;0.80;;
19643;SDS011;9970;-36.854;174.870;2022-08-07T04:19:13;0.80;;;0.80;;
19643;SDS011;9970;-36.854;174.870;2022-08-07T04:21:56;0.80;;;0.80;;
19643;SDS011;9970;-36.854;174.870;2022-08-07T04:24:34;0.80;;;0.80;;
19643;SDS011;9970;-36.854;174.870;2022-08-07T04:27:15;0.80;;;0.80;;
19643;SDS011;9970;-36.854;174.870;2022-08-07T04:29:49;0.80;;;0.80;;
19643;SDS011;9970;-36.854;174.870;2022-08-07T04:32:32;0.80;;;0.80;;
19643;SDS011;9970;-36.854;174.870;2022-08-07T04:35:13;0.80;;;0.80;;
19643;SDS011;9970;-36.854;174.870;2022-08-07T04:37:48;0.80;;;0.80;;
19643;SDS011;9970;-36.854;174.870;2022-08-07T04:40:29;0.80;;;0.80;;
19643;SDS011;9970;-36.854;174.870;2022-08-07T04:43:10;0.80;;;0.80;;
19643;SDS011;9970;-36.854;174.870;2022-08-07T04:57:46;0.80;;;0.80;;
19643;SDS011;9970;-36.854;174.870;2022-08-07T05:01:14;0.80;;;0.80;;
19643;SDS011;9970;-36.854;174.870;2022-08-07T05:06:06;0.70;;;0.70;;
19643;SDS011;9970;-36.854;174.870;2022-08-07T05:08:44;0.80;;;0.80;;
19643;SDS011;9970;-36.854;174.870;2022-08-07T05:11:24;0.80;;;0.80;;
19643;SDS011;9970;-36.854;174.870;2022-08-07T05:14:19;0.80;;;0.80;;
19643;SDS011;9970;-36.854;174.870;2022-08-07T05:17:22;0.70;;;0.70;;
19643;SDS011;9970;-36.854;174.870;2022-08-07T05:20:03;0.80;;;0.80;;
19643;SDS011;9970;-36.854;174.870;2022-08-07T05:22:45;0.70;;;0.70;;
19643;SDS011;9970;-36.854;174.870;2022-08-07T05:25:19;0.73;;;0.73;;
19643;SDS011;9970;-36.854;174.870;2022-08-07T05:27:55;0.73;;;0.73;;
19643;SDS011;9970;-36.854;174.870;2022-08-07T05:30:31;0.80;;;0.80;;
19643;SDS011;9970;-36.854;174.870;2022-08-07T05:33:05;0.77;;;0.77;;
19643;SDS011;9970;-36.854;174.870;2022-08-07T05:35:40;0.77;;;0.77;;
19643;SDS011;9970;-36.854;174.870;2022-08-07T05:38:15;0.80;;;0.80;;
19643;SDS011;9970;-36.854;174.870;2022-08-07T05:41:00;0.70;;;0.70;;
19643;SDS011;9970;-36.854;174.870;2022-08-07T05:43:35;0.70;;;0.70;;
19643;SDS011;9970;-36.854;174.870;2022-08-07T05:46:11;0.70;;;0.70;;
19643;SDS011;9970;-36.854;174.870;2022-08-07T05:48:50;0.80;;;0.80;;
19643;SDS011;9970;-36.854;174.870;2022-08-07T05:51:25;0.70;;;0.70;;
19643;SDS011;9970;-36.854;174.870;2022-08-07T05:54:04;0.83;;;0.83;;
19643;SDS011;9970;-36.854;174.870;2022-08-07T05:56:35;0.70;;;0.70;;
19643;SDS011;9970;-36.854;174.870;2022-08-07T05:59:14;0.70;;;0.70;;
19643;SDS011;9970;-36.854;174.870;2022-08-07T06:01:49;0.80;;;0.80;;
19643;SDS011;9970;-36.854;174.870;2022-08-07T06:04:25;0.70;;;0.70;;
19643;SDS011;9970;-36.854;174.870;2022-08-07T06:07:06;0.70;;;0.70;;
19643;SDS011;9970;-36.854;174.870;2022-08-07T06:09:45;0.70;;;0.70;;
19643;SDS011;9970;-36.854;174.870;2022-08-07T06:12:22;0.70;;;0.70;;
19643;SDS011;9970;-36.854;174.870;2022-08-07T06:14:54;0.70;;;0.70;;
19643;SDS011;9970;-36.854;174.870;2022-08-07T06:17:29;0.70;;;0.70;;
19643;SDS011;9970;-36.854;174.870;2022-08-07T06:20:05;0.70;;;0.70;;
19643;SDS011;9970;-36.854;174.870;2022-08-07T06:22:41;0.70;;;0.70;;
19643;SDS011;9970;-36.854;174.870;2022-08-07T06:25:16;0.70;;;0.70;;
19643;SDS011;9970;-36.854;174.870;2022-08-07T06:27:51;0.70;;;0.70;;
19643;SDS011;9970;-36.854;174.870;2022-08-07T06:30:26;0.70;;;0.70;;
19643;SDS011;9970;-36.854;174.870;2022-08-07T06:33:03;0.70;;;0.70;;
19643;SDS011;9970;-36.854;174.870;2022-08-07T06:35:42;0.70;;;0.70;;
19643;SDS011;9970;-36.854;174.870;2022-08-07T06:38:21;0.70;;;0.70;;
19643;SDS011;9970;-36.854;174.870;2022-08-07T06:40:52;0.70;;;0.70;;
19643;SDS011;9970;-36.854;174.870;2022-08-07T06:43:27;0.70;;;0.70;;
19643;SDS011;9970;-36.854;174.870;2022-08-07T06:46:07;0.70;;;0.70;;
19643;SDS011;9970;-36.854;174.870;2022-08-07T06:48:40;0.70;;;0.70;;
19643;SDS011;9970;-36.854;174.870;2022-08-07T06:51:16;0.70;;;0.70;;
19643;SDS011;9970;-36.854;174.870;2022-08-07T06:53:55;0.70;;;0.70;;
19643;SDS011;9970;-36.854;174.870;2022-08-07T06:56:32;0.70;;;0.70;;
19643;SDS011;9970;-36.854;174.870;2022-08-07T06:59:16;0.70;;;0.70;;
19643;SDS011;9970;-36.854;174.870;2022-08-07T07:01:51;0.70;;;0.70;;
19643;SDS011;9970;-36.854;174.870;2022-08-07T07:04:27;0.80;;;0.80;;
19643;SDS011;9970;-36.854;174.870;2022-08-07T07:09:47;0.70;;;0.70;;
19643;SDS011;9970;-36.854;174.870;2022-08-07T07:12:34;0.70;;;0.70;;
19643;SDS011;9970;-36.854;174.870;2022-08-07T07:15:33;0.70;;;0.70;;
19643;SDS011;9970;-36.854;174.870;2022-08-07T07:18:13;0.70;;;0.70;;
19643;SDS011;9970;-36.854;174.870;2022-08-07T07:20:51;0.70;;;0.70;;
19643;SDS011;9970;-36.854;174.870;2022-08-07T07:23:36;0.70;;;0.70;;
19643;SDS011;9970;-36.854;174.870;2022-08-07T07:26:12;0.70;;;0.70;;
19643;SDS011;9970;-36.854;174.870;2022-08-07T07:28:53;0.70;;;0.70;;
19643;SDS011;9970;-36.854;174.870;2022-08-07T07:31:38;0.70;;;0.70;;
19643;SDS011;9970;-36.854;174.870;2022-08-07T07:34:15;0.70;;;0.70;;
19643;SDS011;9970;-36.854;174.870;2022-08-07T07:36:49;0.70;;;0.70;;
19643;SDS011;9970;-36.854;174.870;2022-08-07T07:39:25;0.70;;;0.70;;
19643;SDS011;9970;-36.854;174.870;2022-08-07T07:42:01;0.70;;;0.70;;
19643;SDS011;9970;-36.854;174.870;2022-08-07T07:44:37;0.70;;;0.70;;
19643;SDS011;9970;-36.854;174.870;2022-08-07T07:47:12;0.70;;;0.70;;
19643;SDS011;9970;-36.854;174.870;2022-08-07T07:49:51;0.70;;;0.70;;
19643;SDS011;9970;-36.854;174.870;2022-08-07T07:52:30;0.70;;;0.70;;
19643;SDS011;9970;-36.854;174.870;2022-08-07T07:55:08;0.70;;;0.70;;
19643;SDS011;9970;-36.854;174.870;2022-08-07T07:57:44;0.70;;;0.70;;
19643;SDS011;9970;-36.854;174.870;2022-08-07T08:00:20;0.70;;;0.70;;
19643;SDS011;9970;-36.854;174.870;2022-08-07T08:03:10;0.70;;;0.70;;
19643;SDS011;9970;-36.854;174.870;2022-08-07T08:05:56;0.70;;;0.70;;
19643;SDS011;9970;-36.854;174.870;2022-08-07T08:08:33;0.70;;;0.70;;
19643;SDS011;9970;-36.854;174.870;2022-08-07T08:11:14;0.70;;;0.70;;
19643;SDS011;9970;-36.854;174.870;2022-08-07T08:13:58;0.70;;;0.70;;
19643;SDS011;9970;-36.854;174.870;2022-08-07T08:16:50;0.70;;;0.70;;
19643;SDS011;9970;-36.854;174.870;2022-08-07T08:19:29;0.70;;;0.70;;
19643;SDS011;9970;-36.854;174.870;2022-08-07T08:22:08;0.70;;;0.70;;
19643;SDS011;9970;-36.854;174.870;2022-08-07T08:25:02;0.70;;;0.70;;
19643;SDS011;9970;-36.854;174.870;2022-08-07T08:27:55;0.70;;;0.70;;
19643;SDS011;9970;-36.854;174.870;2022-08-07T08:30:37;0.70;;;0.70;;
19643;SDS011;9970;-36.854;174.870;2022-08-07T08:33:21;0.70;;;0.70;;
19643;SDS011;9970;-36.854;174.870;2022-08-07T08:35:58;0.70;;;0.70;;
19643;SDS011;9970;-36.854;174.870;2022-08-07T08:38:35;0.70;;;0.70;;
19643;SDS011;9970;-36.854;174.870;2022-08-07T08:41:22;0.70;;;0.70;;
19643;SDS011;9970;-36.854;174.870;2022-08-07T08:44:00;0.70;;;0.70;;
19643;SDS011;9970;-36.854;174.870;2022-08-07T08:47:01;0.70;;;0.70;;
19643;SDS011;9970;-36.854;174.870;2022-08-07T08:52:34;0.70;;;0.70;;
19643;SDS011;9970;-36.854;174.870;2022-08-07T08:55:24;0.70;;;0.70;;
19643;SDS011;9970;-36.854;174.870;2022-08-07T09:00:51;0.70;;;0.70;;
19643;SDS011;9970;-36.854;174.870;2022-08-07T09:03:35;0.70;;;0.70;;
19643;SDS011;9970;-36.854;174.870;2022-08-07T09:30:12;0.70;;;0.70;;
19643;SDS011;9970;-36.854;174.870;2022-08-07T09:35:54;0.70;;;0.70;;
19643;SDS011;9970;-36.854;174.870;2022-08-07T09:49:51;0.80;;;0.80;;
19643;SDS011;9970;-36.854;174.870;2022-08-07T09:52:47;0.80;;;0.80;;
19643;SDS011;9970;-36.854;174.870;2022-08-07T09:55:36;0.70;;;0.70;;
19643;SDS011;9970;-36.854;174.870;2022-08-07T09:58:28;0.80;;;0.80;;
19643;SDS011;9970;-36.854;174.870;2022-08-07T10:01:20;0.70;;;0.70;;
19643;SDS011;9970;-36.854;174.870;2022-08-07T10:13:04;0.70;;;0.70;;
19643;SDS011;9970;-36.854;174.870;2022-08-07T10:18:23;0.70;;;0.70;;
19643;SDS011;9970;-36.854;174.870;2022-08-07T10:26:48;0.70;;;0.70;;
19643;SDS011;9970;-36.854;174.870;2022-08-07T10:40:28;0.70;;;0.70;;
19643;SDS011;9970;-36.854;174.870;2022-08-07T10:43:14;0.80;;;0.80;;
19643;SDS011;9970;-36.854;174.870;2022-08-07T10:45:54;0.80;;;0.80;;
19643;SDS011;9970;-36.854;174.870;2022-08-07T10:48:41;0.80;;;0.80;;
19643;SDS011;9970;-36.854;174.870;2022-08-07T10:51:47;0.80;;;0.80;;
19643;SDS011;9970;-36.854;174.870;2022-08-07T11:00:08;0.77;;;0.77;;
19643;SDS011;9970;-36.854;174.870;2022-08-07T11:02:58;0.80;;;0.80;;
19643;SDS011;9970;-36.854;174.870;2022-08-07T11:05:48;0.80;;;0.80;;
19643;SDS011;9970;-36.854;174.870;2022-08-07T11:11:17;0.80;;;0.80;;
19643;SDS011;9970;-36.854;174.870;2022-08-07T11:14:03;0.80;;;0.80;;
19643;SDS011;9970;-36.854;174.870;2022-08-07T11:17:02;0.80;;;0.80;;
19643;SDS011;9970;-36.854;174.870;2022-08-07T11:19:40;0.73;;;0.73;;
19643;SDS011;9970;-36.854;174.870;2022-08-07T11:22:51;0.80;;;0.80;;
19643;SDS011;9970;-36.854;174.870;2022-08-07T11:28:20;0.80;;;0.80;;
19643;SDS011;9970;-36.854;174.870;2022-08-07T11:42:05;0.70;;;0.70;;
19643;SDS011;9970;-36.854;174.870;2022-08-07T11:44:59;0.70;;;0.70;;
19643;SDS011;9970;-36.854;174.870;2022-08-07T11:50:36;0.80;;;0.80;;
19643;SDS011;9970;-36.854;174.870;2022-08-07T12:01:44;0.70;;;0.70;;
19643;SDS011;9970;-36.854;174.870;2022-08-07T12:04:30;0.80;;;0.80;;
19643;SDS011;9970;-36.854;174.870;2022-08-07T12:07:25;0.80;;;0.80;;
19643;SDS011;9970;-36.854;174.870;2022-08-07T12:10:07;0.70;;;0.70;;
19643;SDS011;9970;-36.854;174.870;2022-08-07T12:12:39;0.80;;;0.80;;
19643;SDS011;9970;-36.854;174.870;2022-08-07T12:15:25;0.80;;;0.80;;
19643;SDS011;9970;-36.854;174.870;2022-08-07T12:24:02;0.80;;;0.80;;
19643;SDS011;9970;-36.854;174.870;2022-08-07T12:26:43;0.80;;;0.80;;
19643;SDS011;9970;-36.854;174.870;2022-08-07T12:29:27;0.80;;;0.80;;
19643;SDS011;9970;-36.854;174.870;2022-08-07T12:34:47;0.80;;;0.80;;
19643;SDS011;9970;-36.854;174.870;2022-08-07T12:37:24;0.80;;;0.80;;
19643;SDS011;9970;-36.854;174.870;2022-08-07T12:39:59;0.80;;;0.80;;
19643;SDS011;9970;-36.854;174.870;2022-08-07T12:42:34;0.80;;;0.80;;
19643;SDS011;9970;-36.854;174.870;2022-08-07T12:45:21;0.83;;;0.83;;
19643;SDS011;9970;-36.854;174.870;2022-08-07T12:50:33;0.80;;;0.80;;
19643;SDS011;9970;-36.854;174.870;2022-08-07T12:53:14;0.80;;;0.80;;
19643;SDS011;9970;-36.854;174.870;2022-08-07T12:56:13;0.80;;;0.80;;
19643;SDS011;9970;-36.854;174.870;2022-08-07T12:58:51;0.80;;;0.80;;
19643;SDS011;9970;-36.854;174.870;2022-08-07T13:01:31;0.80;;;0.80;;
19643;SDS011;9970;-36.854;174.870;2022-08-07T13:10:40;0.83;;;0.83;;
19643;SDS011;9970;-36.854;174.870;2022-08-07T13:13:32;0.80;;;0.80;;
19643;SDS011;9970;-36.854;174.870;2022-08-07T13:22:03;0.80;;;0.80;;
19643;SDS011;9970;-36.854;174.870;2022-08-07T13:27:26;0.80;;;0.80;;
19643;SDS011;9970;-36.854;174.870;2022-08-07T13:30:04;0.80;;;0.80;;
19643;SDS011;9970;-36.854;174.870;2022-08-07T13:35:51;0.80;;;0.80;;
19643;SDS011;9970;-36.854;174.870;2022-08-07T13:38:50;0.80;;;0.80;;
19643;SDS011;9970;-36.854;174.870;2022-08-07T13:41:46;0.80;;;0.80;;
19643;SDS011;9970;-36.854;174.870;2022-08-07T13:44:16;0.80;;;0.80;;
19643;SDS011;9970;-36.854;174.870;2022-08-07T13:46:55;0.80;;;0.80;;
19643;SDS011;9970;-36.854;174.870;2022-08-07T13:49:33;0.80;;;0.80;;
19643;SDS011;9970;-36.854;174.870;2022-08-07T13:52:15;0.80;;;0.80;;
19643;SDS011;9970;-36.854;174.870;2022-08-07T13:54:55;0.80;;;0.80;;
19643;SDS011;9970;-36.854;174.870;2022-08-07T13:57:30;0.80;;;0.80;;
19643;SDS011;9970;-36.854;174.870;2022-08-07T14:00:05;0.80;;;0.80;;
19643;SDS011;9970;-36.854;174.870;2022-08-07T14:02:41;0.80;;;0.80;;
19643;SDS011;9970;-36.854;174.870;2022-08-07T14:05:20;0.80;;;0.80;;
19643;SDS011;9970;-36.854;174.870;2022-08-07T14:08:09;0.80;;;0.80;;
19643;SDS011;9970;-36.854;174.870;2022-08-07T14:10:44;0.80;;;0.80;;
19643;SDS011;9970;-36.854;174.870;2022-08-07T14:13:25;0.80;;;0.80;;
19643;SDS011;9970;-36.854;174.870;2022-08-07T14:16:05;0.80;;;0.80;;
19643;SDS011;9970;-36.854;174.870;2022-08-07T14:18:57;0.83;;;0.83;;
19643;SDS011;9970;-36.854;174.870;2022-08-07T14:21:57;0.80;;;0.80;;
19643;SDS011;9970;-36.854;174.870;2022-08-07T14:24:36;0.80;;;0.80;;
19643;SDS011;9970;-36.854;174.870;2022-08-07T14:27:11;0.80;;;0.80;;
19643;SDS011;9970;-36.854;174.870;2022-08-07T14:30:06;0.80;;;0.80;;
19643;SDS011;9970;-36.854;174.870;2022-08-07T14:32:27;0.80;;;0.80;;
19643;SDS011;9970;-36.854;174.870;2022-08-07T14:35:03;0.80;;;0.80;;
19643;SDS011;9970;-36.854;174.870;2022-08-07T14:37:38;0.80;;;0.80;;
19643;SDS011;9970;-36.854;174.870;2022-08-07T14:40:17;0.90;;;0.90;;
19643;SDS011;9970;-36.854;174.870;2022-08-07T14:42:57;0.90;;;0.90;;
19643;SDS011;9970;-36.854;174.870;2022-08-07T14:48:31;0.90;;;0.90;;
19643;SDS011;9970;-36.854;174.870;2022-08-07T14:51:11;0.80;;;0.80;;
19643;SDS011;9970;-36.854;174.870;2022-08-07T14:53:52;0.80;;;0.80;;
19643;SDS011;9970;-36.854;174.870;2022-08-07T14:56:28;0.80;;;0.80;;
19643;SDS011;9970;-36.854;174.870;2022-08-07T14:59:08;0.80;;;0.80;;
19643;SDS011;9970;-36.854;174.870;2022-08-07T15:01:47;0.80;;;0.80;;
19643;SDS011;9970;-36.854;174.870;2022-08-07T15:04:21;0.80;;;0.80;;
19643;SDS011;9970;-36.854;174.870;2022-08-07T15:06:55;0.80;;;0.80;;
19643;SDS011;9970;-36.854;174.870;2022-08-07T15:09:30;0.80;;;0.80;;
19643;SDS011;9970;-36.854;174.870;2022-08-07T15:12:06;0.80;;;0.80;;
19643;SDS011;9970;-36.854;174.870;2022-08-07T15:14:46;0.80;;;0.80;;
19643;SDS011;9970;-36.854;174.870;2022-08-07T15:17:20;0.90;;;0.90;;
19643;SDS011;9970;-36.854;174.870;2022-08-07T15:20:04;0.80;;;0.80;;
19643;SDS011;9970;-36.854;174.870;2022-08-07T15:22:48;0.80;;;0.80;;
19643;SDS011;9970;-36.854;174.870;2022-08-07T15:25:31;0.80;;;0.80;;
19643;SDS011;9970;-36.854;174.870;2022-08-07T15:28:06;0.80;;;0.80;;
19643;SDS011;9970;-36.854;174.870;2022-08-07T15:30:49;0.90;;;0.90;;
19643;SDS011;9970;-36.854;174.870;2022-08-07T15:33:24;0.90;;;0.90;;
19643;SDS011;9970;-36.854;174.870;2022-08-07T15:36:07;0.80;;;0.80;;
19643;SDS011;9970;-36.854;174.870;2022-08-07T15:38:43;0.80;;;0.80;;
19643;SDS011;9970;-36.854;174.870;2022-08-07T15:41:17;0.80;;;0.80;;
19643;SDS011;9970;-36.854;174.870;2022-08-07T15:44:03;0.87;;;0.87;;
19643;SDS011;9970;-36.854;174.870;2022-08-07T15:46:43;0.80;;;0.80;;
19643;SDS011;9970;-36.854;174.870;2022-08-07T15:49:31;0.80;;;0.80;;
19643;SDS011;9970;-36.854;174.870;2022-08-07T15:52:07;0.80;;;0.80;;
19643;SDS011;9970;-36.854;174.870;2022-08-07T15:54:42;0.80;;;0.80;;
19643;SDS011;9970;-36.854;174.870;2022-08-07T15:57:22;0.80;;;0.80;;
19643;SDS011;9970;-36.854;174.870;2022-08-07T15:59:56;0.90;;;0.90;;
19643;SDS011;9970;-36.854;174.870;2022-08-07T16:02:40;0.80;;;0.80;;
19643;SDS011;9970;-36.854;174.870;2022-08-07T16:05:15;0.80;;;0.80;;
19643;SDS011;9970;-36.854;174.870;2022-08-07T16:07:53;0.80;;;0.80;;
19643;SDS011;9970;-36.854;174.870;2022-08-07T16:10:32;0.80;;;0.80;;
19643;SDS011;9970;-36.854;174.870;2022-08-07T16:19:06;0.90;;;0.90;;
19643;SDS011;9970;-36.854;174.870;2022-08-07T16:22:07;0.80;;;0.80;;
19643;SDS011;9970;-36.854;174.870;2022-08-07T16:24:54;0.80;;;0.80;;
19643;SDS011;9970;-36.854;174.870;2022-08-07T16:27:33;0.80;;;0.80;;
19643;SDS011;9970;-36.854;174.870;2022-08-07T16:30:14;0.80;;;0.80;;
19643;SDS011;9970;-36.854;174.870;2022-08-07T16:32:57;0.80;;;0.80;;
19643;SDS011;9970;-36.854;174.870;2022-08-07T16:35:40;0.80;;;0.80;;
19643;SDS011;9970;-36.854;174.870;2022-08-07T16:47:15;0.80;;;0.80;;
19643;SDS011;9970;-36.854;174.870;2022-08-07T16:50:04;0.80;;;0.80;;
19643;SDS011;9970;-36.854;174.870;2022-08-07T16:52:54;0.80;;;0.80;;
19643;SDS011;9970;-36.854;174.870;2022-08-07T16:55:59;0.80;;;0.80;;
19643;SDS011;9970;-36.854;174.870;2022-08-07T17:01:38;0.80;;;0.80;;
19643;SDS011;9970;-36.854;174.870;2022-08-07T17:07:17;0.80;;;0.80;;
19643;SDS011;9970;-36.854;174.870;2022-08-07T17:12:40;0.80;;;0.80;;
19643;SDS011;9970;-36.854;174.870;2022-08-07T17:18:17;0.80;;;0.80;;
19643;SDS011;9970;-36.854;174.870;2022-08-07T17:20:52;0.80;;;0.80;;
19643;SDS011;9970;-36.854;174.870;2022-08-07T17:23:38;0.80;;;0.80;;
19643;SDS011;9970;-36.854;174.870;2022-08-07T17:29:11;0.90;;;0.90;;
19643;SDS011;9970;-36.854;174.870;2022-08-07T17:31:52;0.70;;;0.70;;
19643;SDS011;9970;-36.854;174.870;2022-08-07T17:34:27;0.80;;;0.80;;
19643;SDS011;9970;-36.854;174.870;2022-08-07T17:37:10;0.80;;;0.80;;
19643;SDS011;9970;-36.854;174.870;2022-08-07T17:45:20;0.80;;;0.80;;
19643;SDS011;9970;-36.854;174.870;2022-08-07T17:48:41;0.80;;;0.80;;
19643;SDS011;9970;-36.854;174.870;2022-08-07T17:56:10;0.80;;;0.80;;
19643;SDS011;9970;-36.854;174.870;2022-08-07T18:09:42;0.73;;;0.73;;
19643;SDS011;9970;-36.854;174.870;2022-08-07T18:12:27;0.70;;;0.70;;
19643;SDS011;9970;-36.854;174.870;2022-08-07T18:15:17;0.80;;;0.80;;
19643;SDS011;9970;-36.854;174.870;2022-08-07T18:17:55;0.70;;;0.70;;
19643;SDS011;9970;-36.854;174.870;2022-08-07T18:20:42;0.80;;;0.80;;
19643;SDS011;9970;-36.854;174.870;2022-08-07T18:23:24;0.80;;;0.80;;
19643;SDS011;9970;-36.854;174.870;2022-08-07T18:26:02;0.77;;;0.77;;
19643;SDS011;9970;-36.854;174.870;2022-08-07T18:35:00;0.80;;;0.80;;
19643;SDS011;9970;-36.854;174.870;2022-08-07T18:37:49;0.80;;;0.80;;
19643;SDS011;9970;-36.854;174.870;2022-08-07T18:43:10;0.80;;;0.80;;
19643;SDS011;9970;-36.854;174.870;2022-08-07T18:45:45;0.70;;;0.70;;
19643;SDS011;9970;-36.854;174.870;2022-08-07T18:48:29;0.70;;;0.70;;
19643;SDS011;9970;-36.854;174.870;2022-08-07T18:51:18;0.70;;;0.70;;
19643;SDS011;9970;-36.854;174.870;2022-08-07T18:54:47;0.80;;;0.80;;
19643;SDS011;9970;-36.854;174.870;2022-08-07T18:56:53;0.80;;;0.80;;
19643;SDS011;9970;-36.854;174.870;2022-08-07T19:05:28;0.80;;;0.80;;
19643;SDS011;9970;-36.854;174.870;2022-08-07T19:08:12;0.70;;;0.70;;
19643;SDS011;9970;-36.854;174.870;2022-08-07T19:13:35;0.80;;;0.80;;
19643;SDS011;9970;-36.854;174.870;2022-08-07T19:25:02;0.80;;;0.80;;
19643;SDS011;9970;-36.854;174.870;2022-08-07T19:27:35;0.70;;;0.70;;
19643;SDS011;9970;-36.854;174.870;2022-08-07T19:30:14;0.70;;;0.70;;
19643;SDS011;9970;-36.854;174.870;2022-08-07T19:32:51;0.70;;;0.70;;
19643;SDS011;9970;-36.854;174.870;2022-08-07T19:35:27;0.80;;;0.80;;
19643;SDS011;9970;-36.854;174.870;2022-08-07T19:38:04;0.70;;;0.70;;